createdAt,value
2023-01-30T00:01:18.521Z,49.63
2023-01-30T00:03:47.198Z,49.70
2023-01-30T00:06:15.589Z,49.94
2023-01-30T00:08:43.729Z,49.95
2023-01-30T00:11:14.899Z,50.03
2023-01-30T00:13:44.405Z,50.04
2023-01-30T00:16:12.765Z,49.97
2023-01-30T00:18:41.429Z,50.28
2023-01-30T00:21:11.412Z,50.07
2023-01-30T00:23:39.579Z,50.13
2023-01-30T00:26:08.086Z,49.93
2023-01-30T00:28:37.035Z,49.99
2023-01-30T00:31:05.975Z,49.94
2023-01-30T00:33:35.778Z,50.18
2023-01-30T00:36:06.652Z,50.09
2023-01-30T00:38:36.309Z,50.14
2023-01-30T00:41:04.687Z,50.21
2023-01-30T00:43:52.300Z,50.26
2023-01-30T00:46:50.096Z,50.24
2023-01-30T00:49:18.418Z,50.43
2023-01-30T00:51:46.613Z,50.20
2023-01-30T00:54:14.907Z,50.23
2023-01-30T00:56:43.327Z,50.46
2023-01-30T00:59:11.684Z,50.33
2023-01-30T01:01:39.891Z,50.44
2023-01-30T01:04:10.531Z,50.31
2023-01-30T01:06:44.243Z,50.19
2023-01-30T01:09:12.941Z,50.27
2023-01-30T01:11:42.095Z,50.33
2023-01-30T01:14:10.567Z,50.52
2023-01-30T01:16:40.612Z,50.24
2023-01-30T01:19:09.245Z,50.37
2023-01-30T01:21:37.435Z,50.61
2023-01-30T01:24:06.799Z,50.54
2023-01-30T01:26:35.523Z,50.62
2023-01-30T01:29:04.361Z,50.64
2023-01-30T01:31:33.316Z,50.59
2023-01-30T01:34:01.539Z,50.70
2023-01-30T01:36:52.052Z,50.92
2023-01-30T01:39:18.240Z,51.08
2023-01-30T01:41:46.454Z,50.94
2023-01-30T01:44:15.508Z,50.89
2023-01-30T01:47:04.012Z,50.93
2023-01-30T01:49:35.932Z,50.91
2023-01-30T01:52:07.053Z,50.92
2023-01-30T01:54:56.215Z,51.09
2023-01-30T01:57:27.091Z,51.23
2023-01-30T02:00:02.211Z,51.02
2023-01-30T02:02:42.777Z,51.16
2023-01-30T02:05:12.947Z,51.19
2023-01-30T02:08:27.185Z,51.38
2023-01-30T02:11:20.189Z,51.15
2023-01-30T02:13:48.857Z,51.39
2023-01-30T02:16:17.568Z,51.31
2023-01-30T02:18:46.287Z,51.26
2023-01-30T02:21:33.016Z,51.41
2023-01-30T02:24:10.571Z,51.52
2023-01-30T02:27:01.699Z,51.79
2023-01-30T02:30:02.691Z,51.87
2023-01-30T02:32:48.214Z,51.98
2023-01-30T02:35:22.919Z,52.04
2023-01-30T02:38:16.438Z,52.00
2023-01-30T02:41:18.506Z,52.15
2023-01-30T02:44:13.591Z,52.32
2023-01-30T02:47:06.857Z,52.21
2023-01-30T02:49:46.198Z,52.25
2023-01-30T02:52:14.782Z,52.09
2023-01-30T02:54:43.760Z,52.38
2023-01-30T02:57:25.333Z,52.19
2023-01-30T02:59:58.242Z,52.01
2023-01-30T03:02:51.069Z,52.26
2023-01-30T03:05:30.140Z,52.30
2023-01-30T03:08:16.029Z,52.31
2023-01-30T03:11:24.620Z,52.24
2023-01-30T03:14:03.469Z,52.03
2023-01-30T03:16:36.881Z,52.35
2023-01-30T03:19:09.368Z,52.09
2023-01-30T03:21:42.783Z,51.97
2023-01-30T03:24:14.112Z,51.94
2023-01-30T03:27:12.209Z,51.82
2023-01-30T03:29:44.543Z,51.46
2023-01-30T03:32:13.025Z,51.56
2023-01-30T03:34:42.003Z,51.48
2023-01-30T03:37:11.606Z,51.70
2023-01-30T03:39:39.977Z,51.30
2023-01-30T03:42:08.331Z,51.50
2023-01-30T03:44:36.585Z,51.51
2023-01-30T03:47:05.142Z,51.50
2023-01-30T04:01:59.716Z,51.44
2023-01-30T04:04:28.404Z,50.81
2023-01-30T04:06:58.222Z,50.51
2023-01-30T04:09:26.815Z,50.69
2023-01-30T04:11:58.256Z,50.74
2023-01-30T04:14:27.867Z,50.76
2023-01-30T04:17:10.183Z,50.68
2023-01-30T04:20:08.848Z,50.81
2023-01-30T04:22:37.834Z,50.83
2023-01-30T04:25:06.250Z,50.99
2023-01-30T04:27:34.960Z,50.98
2023-01-30T04:30:15.513Z,50.90
2023-01-30T04:32:45.011Z,51.00
2023-01-30T04:35:13.393Z,51.03
2023-01-30T04:37:42.283Z,51.20
2023-01-30T04:40:12.013Z,51.17
2023-01-30T04:42:40.472Z,51.07
2023-01-30T04:45:28.727Z,51.13
2023-01-30T04:48:00.102Z,51.24
2023-01-30T04:50:28.751Z,51.36
2023-01-30T04:52:57.031Z,51.46
2023-01-30T04:55:25.323Z,51.46
2023-01-30T04:57:55.348Z,51.53
2023-01-30T05:00:23.622Z,51.79
2023-01-30T05:02:56.709Z,51.76
2023-01-30T05:05:25.882Z,51.89
2023-01-30T05:07:54.839Z,51.92
2023-01-30T05:10:23.288Z,51.76
2023-01-30T05:12:51.679Z,52.02
2023-01-30T05:15:20.143Z,52.16
2023-01-30T05:17:48.642Z,52.09
2023-01-30T05:20:19.677Z,52.23
2023-01-30T05:22:51.085Z,52.42
2023-01-30T05:25:19.818Z,52.47
2023-01-30T05:27:48.303Z,52.62
2023-01-30T05:30:17.558Z,52.56
2023-01-30T05:32:47.217Z,52.79
2023-01-30T05:35:16.051Z,52.92
2023-01-30T05:37:51.178Z,52.89
2023-01-30T05:40:19.804Z,52.83
2023-01-30T05:42:48.009Z,53.04
2023-01-30T05:45:17.249Z,53.11
2023-01-30T05:47:50.414Z,53.15
2023-01-30T05:50:20.018Z,53.22
2023-01-30T05:52:48.210Z,53.18
2023-01-30T05:55:17.122Z,53.39
2023-01-30T05:57:45.674Z,53.48
2023-01-30T06:00:14.867Z,53.60
2023-01-30T06:02:45.259Z,53.56
2023-01-30T06:05:14.630Z,53.57
2023-01-30T06:07:44.268Z,53.71
2023-01-30T06:10:12.798Z,53.77
2023-01-30T06:12:42.617Z,53.65
2023-01-30T06:15:12.228Z,53.78
2023-01-30T06:17:44.602Z,53.87
2023-01-30T06:20:13.082Z,53.82
2023-01-30T06:22:41.644Z,53.83
2023-01-30T06:25:10.976Z,53.87
2023-01-30T06:27:39.554Z,54.00
2023-01-30T06:30:10.218Z,53.95
2023-01-30T06:32:38.984Z,53.70
2023-01-30T06:35:08.240Z,53.79
2023-01-30T06:37:36.460Z,53.88
2023-01-30T06:40:05.577Z,54.05
2023-01-30T06:42:34.653Z,54.10
2023-01-30T06:45:02.808Z,53.91
2023-01-30T06:47:31.406Z,54.31
2023-01-30T06:49:59.696Z,54.26
2023-01-30T06:52:29.785Z,54.46
2023-01-30T06:54:59.020Z,54.20
2023-01-30T06:57:27.297Z,54.28
2023-01-30T06:59:55.730Z,54.29
2023-01-30T07:02:24.367Z,54.20
2023-01-30T07:04:52.756Z,54.23
2023-01-30T07:07:20.933Z,54.12
2023-01-30T07:10:05.802Z,54.05
2023-01-30T07:12:36.388Z,54.22
2023-01-30T07:15:10.792Z,54.29
2023-01-30T07:17:43.430Z,54.15
2023-01-30T07:20:14.681Z,54.20
2023-01-30T07:22:44.555Z,53.99
2023-01-30T07:25:14.316Z,54.09
2023-01-30T07:27:43.095Z,54.16
2023-01-30T07:30:12.328Z,54.45
2023-01-30T07:32:40.574Z,54.35
2023-01-30T07:35:09.393Z,54.48
2023-01-30T07:37:37.768Z,54.52
2023-01-30T07:40:07.088Z,54.41
2023-01-30T07:42:35.357Z,54.55
2023-01-30T07:45:04.114Z,54.39
2023-01-30T07:47:32.297Z,54.36
2023-01-30T07:50:00.633Z,54.52
2023-01-30T07:52:29.063Z,54.51
2023-01-30T07:54:58.535Z,54.45
2023-01-30T07:57:28.418Z,54.59
2023-01-30T07:59:56.662Z,54.36
2023-01-30T08:02:24.946Z,54.38
2023-01-30T08:04:53.374Z,54.63
2023-01-30T08:07:26.012Z,54.57
2023-01-30T08:09:54.195Z,54.37
2023-01-30T08:12:24.397Z,54.49
2023-01-30T08:14:52.512Z,54.56
2023-01-30T08:17:20.651Z,54.57
2023-01-30T08:19:48.910Z,54.46
2023-01-30T08:22:17.184Z,54.43
2023-01-30T08:24:45.381Z,54.24
2023-01-30T08:27:14.288Z,54.30
2023-01-30T08:29:42.468Z,54.40
2023-01-30T08:32:10.759Z,54.51
2023-01-30T08:34:40.141Z,54.35
2023-01-30T08:37:08.461Z,54.42
2023-01-30T08:39:37.346Z,54.45
2023-01-30T08:42:05.788Z,54.55
2023-01-30T08:44:35.307Z,54.55
2023-01-30T08:47:03.523Z,54.61
2023-01-30T08:49:32.382Z,54.48
2023-01-30T08:52:00.656Z,54.38
2023-01-30T08:54:28.923Z,54.24
2023-01-30T08:56:57.162Z,54.13
2023-01-30T08:59:25.253Z,54.26
2023-01-30T09:01:53.451Z,54.20
2023-01-30T09:04:23.417Z,54.08
2023-01-30T09:06:51.651Z,54.04
2023-01-30T09:09:20.043Z,54.03
2023-01-30T09:11:48.620Z,53.95
2023-01-30T09:14:20.276Z,53.60
2023-01-30T09:16:56.092Z,53.45
2023-01-30T09:19:25.742Z,53.44
2023-01-30T09:21:54.266Z,53.36
2023-01-30T09:24:27.002Z,53.40
2023-01-30T09:26:57.802Z,53.26
2023-01-30T09:29:26.742Z,53.40
2023-01-30T09:31:59.136Z,53.53
2023-01-30T09:34:29.054Z,53.39
2023-01-30T09:37:00.412Z,53.48
2023-01-30T09:39:29.179Z,53.53
2023-01-30T09:42:23.976Z,53.57
2023-01-30T09:45:10.891Z,53.85
2023-01-30T09:47:47.933Z,54.11
2023-01-30T09:50:42.780Z,54.27
2023-01-30T09:53:36.456Z,54.57
2023-01-30T09:56:05.040Z,54.65
2023-01-30T09:59:07.619Z,55.06
2023-01-30T10:02:07.134Z,55.06
2023-01-30T10:04:48.821Z,55.28
2023-01-30T10:07:57.537Z,55.54
2023-01-30T10:11:00.989Z,55.52
2023-01-30T10:13:58.422Z,55.56
2023-01-30T10:16:45.337Z,55.40
2023-01-30T10:19:16.060Z,55.58
2023-01-30T10:21:51.835Z,55.63
2023-01-30T10:24:58.306Z,55.67
2023-01-30T10:27:26.589Z,55.57
2023-01-30T10:29:58.608Z,55.85
2023-01-30T10:32:32.152Z,55.88
2023-01-30T10:35:14.154Z,56.03
2023-01-30T10:38:03.231Z,56.06
2023-01-30T10:40:41.558Z,55.96
2023-01-30T10:43:25.236Z,55.99
2023-01-30T10:45:59.498Z,55.49
2023-01-30T10:48:45.801Z,55.34
2023-01-30T10:51:39.364Z,55.08
2023-01-30T10:54:12.252Z,55.03
2023-01-30T10:56:52.202Z,55.00
2023-01-30T11:00:22.023Z,54.73
2023-01-30T11:03:08.748Z,54.47
2023-01-30T11:05:48.073Z,54.39
2023-01-30T11:08:42.465Z,54.31
2023-01-30T11:11:31.413Z,54.23
2023-01-30T11:14:09.155Z,54.13
2023-01-30T11:16:56.867Z,53.98
2023-01-30T11:19:34.397Z,54.02
2023-01-30T11:22:04.741Z,54.01
2023-01-30T11:24:40.234Z,53.75
2023-01-30T11:27:28.586Z,53.83
2023-01-30T11:30:12.659Z,53.75
2023-01-30T11:32:44.069Z,53.75
2023-01-30T11:35:25.914Z,53.97
2023-01-30T11:37:54.936Z,53.95
2023-01-30T11:40:25.651Z,53.77
2023-01-30T11:43:02.036Z,53.85
2023-01-30T11:45:39.693Z,53.78
2023-01-30T11:48:33.224Z,53.80
2023-01-30T11:51:06.320Z,53.77
2023-01-30T12:06:11.637Z,53.70
2023-01-30T12:08:42.164Z,53.03
2023-01-30T12:11:42.257Z,53.10
2023-01-30T12:14:11.888Z,53.06
2023-01-30T12:17:08.060Z,52.91
2023-01-30T12:19:44.191Z,52.96
2023-01-30T12:22:18.964Z,53.02
2023-01-30T12:24:58.675Z,53.08
2023-01-30T12:27:53.675Z,53.31
2023-01-30T12:30:41.706Z,53.41
2023-01-30T12:33:11.600Z,53.43
2023-01-30T12:35:59.969Z,53.49
2023-01-30T12:38:59.499Z,53.61
2023-01-30T12:41:39.447Z,53.72
2023-01-30T12:44:19.244Z,53.80
2023-01-30T12:47:12.610Z,53.76
2023-01-30T12:49:42.803Z,53.86
2023-01-30T12:52:31.360Z,53.76
2023-01-30T12:55:18.416Z,53.93
2023-01-30T12:57:56.887Z,54.06
2023-01-30T13:00:42.327Z,54.13
2023-01-30T13:03:15.693Z,54.23
2023-01-30T13:05:46.124Z,54.08
2023-01-30T13:08:45.731Z,54.20
2023-01-30T13:11:15.582Z,54.31
2023-01-30T13:14:00.435Z,54.30
2023-01-30T13:17:08.272Z,54.31
2023-01-30T13:20:08.007Z,54.31
2023-01-30T13:22:35.326Z,54.33
2023-01-30T13:25:28.029Z,54.50
2023-01-30T13:27:55.626Z,54.67
2023-01-30T13:30:24.745Z,54.48
2023-01-30T13:32:56.193Z,54.65
2023-01-30T13:35:26.598Z,54.87
2023-01-30T13:37:53.991Z,54.95
2023-01-30T13:40:25.684Z,54.94
2023-01-30T13:42:58.923Z,54.90
2023-01-30T13:45:27.884Z,54.85
2023-01-30T13:48:23.326Z,55.03
2023-01-30T13:51:14.538Z,54.87
2023-01-30T13:53:49.187Z,55.00
2023-01-30T13:56:42.546Z,54.83
2023-01-30T13:59:30.272Z,55.01
2023-01-30T14:02:03.196Z,55.00
2023-01-30T14:04:39.672Z,55.18
2023-01-30T14:07:12.445Z,55.20
2023-01-30T14:09:50.445Z,55.11
2023-01-30T14:12:19.176Z,55.22
2023-01-30T14:15:11.999Z,55.14
2023-01-30T14:17:39.588Z,55.19
2023-01-30T14:20:17.687Z,55.26
2023-01-30T14:22:50.838Z,55.27
2023-01-30T14:25:29.887Z,55.26
2023-01-30T14:27:59.994Z,55.50
2023-01-30T14:30:49.131Z,55.40
2023-01-30T14:33:19.114Z,55.34
2023-01-30T14:35:49.365Z,55.34
2023-01-30T14:38:19.532Z,55.41
2023-01-30T14:41:01.851Z,55.42
2023-01-30T14:43:31.626Z,55.44
2023-01-30T14:46:02.739Z,55.47
2023-01-30T14:48:56.179Z,55.52
2023-01-30T14:51:39.246Z,55.60
2023-01-30T14:54:27.458Z,55.50
2023-01-30T14:57:02.292Z,55.54
2023-01-30T14:59:34.922Z,55.67
2023-01-30T15:02:02.202Z,55.66
2023-01-30T15:04:53.521Z,55.69
2023-01-30T15:07:45.983Z,55.72
2023-01-30T15:10:16.118Z,55.75
2023-01-30T15:12:51.284Z,55.69
2023-01-30T15:15:30.531Z,55.77
2023-01-30T15:18:19.525Z,55.72
2023-01-30T15:21:04.788Z,55.67
2023-01-30T15:23:55.105Z,55.72
2023-01-30T15:26:43.431Z,55.78
2023-01-30T15:29:48.697Z,55.75
2023-01-30T15:32:20.467Z,55.60
2023-01-30T15:34:50.146Z,55.74
2023-01-30T15:37:31.058Z,55.75
2023-01-30T15:40:21.820Z,55.62
2023-01-30T15:43:04.016Z,55.68
2023-01-30T15:45:50.646Z,55.67
2023-01-30T15:49:15.954Z,55.71
2023-01-30T15:51:43.092Z,55.62
2023-01-30T15:54:16.613Z,55.59
2023-01-30T15:56:44.493Z,55.60
2023-01-30T15:59:21.717Z,55.53
2023-01-30T16:02:01.648Z,55.51
2023-01-30T16:04:29.446Z,55.54
2023-01-30T16:06:56.246Z,55.62
2023-01-30T16:09:23.953Z,55.74
2023-01-30T16:11:50.925Z,55.58
2023-01-30T16:14:19.131Z,55.59
2023-01-30T16:16:58.223Z,55.71
2023-01-30T16:19:36.985Z,55.66
2023-01-30T16:22:05.607Z,55.58
2023-01-30T16:24:33.833Z,55.63
2023-01-30T16:27:06.090Z,55.63
2023-01-30T16:29:35.688Z,55.67
2023-01-30T16:32:11.262Z,55.63
2023-01-30T16:34:39.497Z,55.55
2023-01-30T16:37:16.316Z,55.58
2023-01-30T16:39:45.911Z,55.57
2023-01-30T16:42:18.781Z,55.58
2023-01-30T16:44:45.653Z,55.70
2023-01-30T16:47:26.612Z,55.65
2023-01-30T16:49:54.373Z,55.64
2023-01-30T16:52:44.649Z,55.70
2023-01-30T16:55:22.857Z,55.74
2023-01-30T16:57:58.059Z,55.80
2023-01-30T17:00:26.207Z,55.94
2023-01-30T17:02:55.318Z,55.96
2023-01-30T17:05:26.827Z,55.78
2023-01-30T17:07:55.321Z,55.85
2023-01-30T17:10:28.239Z,55.96
2023-01-30T17:12:55.798Z,55.93
2023-01-30T17:15:26.572Z,55.98
2023-01-30T17:17:55.446Z,56.16
2023-01-30T17:20:22.295Z,56.03
2023-01-30T17:22:51.933Z,56.19
2023-01-30T17:25:37.701Z,56.01
2023-01-30T17:28:07.829Z,56.04
2023-01-30T17:30:35.393Z,55.89
2023-01-30T17:33:02.281Z,56.03
2023-01-30T17:35:29.781Z,56.22
2023-01-30T17:38:05.219Z,56.28
2023-01-30T17:40:35.255Z,56.29
2023-01-30T17:43:02.283Z,56.35
2023-01-30T17:45:29.700Z,56.41
2023-01-30T17:47:56.663Z,56.58
2023-01-30T17:50:23.702Z,56.53
2023-01-30T17:52:50.796Z,56.46
2023-01-30T17:55:19.502Z,56.48
2023-01-30T17:57:52.702Z,56.47
2023-01-30T18:00:21.089Z,56.53
2023-01-30T18:02:49.013Z,56.49
2023-01-30T18:05:21.701Z,56.52
2023-01-30T18:07:49.414Z,56.56
2023-01-30T18:10:19.149Z,56.51
2023-01-30T18:12:48.029Z,56.56
2023-01-30T18:15:15.889Z,56.58
2023-01-30T18:17:48.130Z,56.56
2023-01-30T18:20:19.710Z,56.67
2023-01-30T18:22:53.344Z,56.58
2023-01-30T18:25:27.489Z,56.48
2023-01-30T18:27:54.791Z,56.45
2023-01-30T18:30:24.620Z,56.46
2023-01-30T18:32:53.288Z,56.45
2023-01-30T18:35:22.438Z,56.51
2023-01-30T18:37:49.877Z,56.62
2023-01-30T18:40:18.231Z,56.55
2023-01-30T18:42:46.401Z,56.55
2023-01-30T18:45:13.333Z,56.57
2023-01-30T18:47:41.996Z,56.66
2023-01-30T18:50:10.074Z,56.70
2023-01-30T18:52:37.110Z,56.63
2023-01-30T18:55:04.417Z,56.39
2023-01-30T18:57:31.951Z,56.15
2023-01-30T18:59:58.874Z,56.35
2023-01-30T19:02:26.393Z,56.30
2023-01-30T19:04:53.193Z,56.27
2023-01-30T19:07:20.348Z,56.16
2023-01-30T19:09:47.256Z,56.15
2023-01-30T19:12:32.730Z,56.10
2023-01-30T19:15:01.034Z,56.13
2023-01-30T19:17:28.909Z,56.27
2023-01-30T19:19:56.934Z,56.20
2023-01-30T19:22:24.027Z,56.17
2023-01-30T19:24:51.288Z,56.17
2023-01-30T19:27:18.341Z,56.27
2023-01-30T19:29:45.322Z,56.33
2023-01-30T19:32:12.383Z,56.28
2023-01-30T19:34:40.539Z,56.32
2023-01-30T19:37:07.803Z,56.22
2023-01-30T19:39:35.245Z,56.19
2023-01-30T19:42:02.319Z,56.23
2023-01-30T19:44:29.346Z,56.32
2023-01-30T20:00:41.441Z,56.73
2023-01-30T20:03:13.081Z,56.23
2023-01-30T20:05:41.646Z,56.29
2023-01-30T20:08:21.828Z,56.40
2023-01-30T20:11:04.278Z,56.46
2023-01-30T20:13:36.775Z,56.60
2023-01-30T20:16:10.523Z,56.67
2023-01-30T20:18:38.984Z,56.78
2023-01-30T20:21:11.480Z,56.90
2023-01-30T20:23:44.859Z,57.01
2023-01-30T20:26:15.009Z,57.05
2023-01-30T20:28:43.574Z,57.15
2023-01-30T20:31:20.488Z,56.99
2023-01-30T20:33:49.276Z,57.09
2023-01-30T20:36:19.013Z,57.12
2023-01-30T20:38:49.629Z,57.17
2023-01-30T20:41:20.157Z,57.27
2023-01-30T20:43:51.262Z,57.14
2023-01-30T20:46:22.701Z,57.34
2023-01-30T20:48:54.448Z,57.26
2023-01-30T20:51:30.768Z,57.56
2023-01-30T20:54:00.629Z,57.84
2023-01-30T20:56:36.488Z,58.02
2023-01-30T20:59:06.168Z,58.36
2023-01-30T21:01:35.372Z,58.57
2023-01-30T21:04:08.382Z,58.73
2023-01-30T21:06:44.078Z,58.98
2023-01-30T21:09:16.299Z,59.18
2023-01-30T21:11:46.062Z,59.33
2023-01-30T21:14:16.060Z,59.61
2023-01-30T21:16:44.746Z,59.88
2023-01-30T21:19:16.237Z,60.02
2023-01-30T21:21:53.624Z,60.21
2023-01-30T21:24:27.515Z,60.44
2023-01-30T21:26:55.961Z,60.73
2023-01-30T21:29:26.459Z,60.74
2023-01-30T21:31:55.797Z,60.88
2023-01-30T21:34:24.225Z,60.88
2023-01-30T21:37:15.382Z,61.01
2023-01-30T21:40:02.392Z,61.08
2023-01-30T21:42:49.816Z,61.38
2023-01-30T21:45:21.200Z,61.52
2023-01-30T21:47:51.588Z,61.57
2023-01-30T21:50:20.617Z,61.65
2023-01-30T21:52:49.021Z,61.71
2023-01-30T21:55:18.034Z,61.93
2023-01-30T21:57:46.505Z,61.82
2023-01-30T22:00:15.076Z,62.01
2023-01-30T22:02:44.452Z,62.02
2023-01-30T22:05:12.709Z,62.08
2023-01-30T22:07:42.495Z,62.19
2023-01-30T22:10:11.325Z,62.43
2023-01-30T22:12:41.992Z,62.46
2023-01-30T22:15:10.725Z,62.49
2023-01-30T22:17:39.959Z,62.64
2023-01-30T22:20:10.262Z,62.76
2023-01-30T22:22:38.682Z,62.95
2023-01-30T22:25:11.842Z,62.85
2023-01-30T22:27:40.238Z,63.24
2023-01-30T22:30:09.745Z,63.31
2023-01-30T22:32:40.584Z,63.31
2023-01-30T22:35:08.876Z,63.32
2023-01-30T22:37:37.330Z,63.47
2023-01-30T22:40:06.422Z,63.51
2023-01-30T22:42:35.277Z,63.59
2023-01-30T22:45:04.300Z,63.81
2023-01-30T22:47:32.594Z,63.87
2023-01-30T22:50:01.201Z,63.92
2023-01-30T22:52:30.035Z,63.96
2023-01-30T22:54:58.195Z,63.89
2023-01-30T22:57:26.790Z,63.94
2023-01-30T22:59:55.229Z,64.12
2023-01-30T23:02:23.698Z,64.14
2023-01-30T23:04:52.180Z,64.14
2023-01-30T23:07:22.337Z,64.01
2023-01-30T23:09:50.924Z,64.16
2023-01-30T23:12:37.946Z,64.23
2023-01-30T23:15:07.005Z,64.23
2023-01-30T23:18:10.755Z,64.49
2023-01-30T23:20:39.142Z,64.47
2023-01-30T23:23:07.423Z,64.52
2023-01-30T23:25:40.348Z,64.60
2023-01-30T23:28:09.132Z,64.75
2023-01-30T23:30:40.619Z,64.66
2023-01-30T23:33:09.805Z,64.85
2023-01-30T23:35:38.025Z,64.80
2023-01-30T23:38:22.268Z,64.92
2023-01-30T23:40:50.959Z,65.05
2023-01-30T23:43:19.503Z,65.01
2023-01-30T23:45:47.763Z,65.27
2023-01-30T23:48:16.428Z,65.22
2023-01-30T23:50:44.918Z,65.31
2023-01-30T23:53:13.166Z,65.51
2023-01-30T23:55:50.953Z,65.63
2023-01-30T23:58:19.352Z,65.65
